Tres Hombres — 9LD2206 — position and weather

sailwx.info

Track history (hours):
 
Tides and Currents Weather Stations Pressure Air Temp Water Temp Dewpoint Dewpoint Depression Visibility Wind Speed Wind Dir Waves Ship Positions

Tres Hombres

Ship's website: http://www.zeilendehandelsvaart.nl/

Last reported at 2014-Oct-31 20:23 UTC. Time now 2014-Oct-31 22:21 UTC.
Position N 50°15' W 002°55'.

Length 32 m.

Type: Sailing vessel. MMSI: 667905000.

Date/timePositionNaut miles runAvg speedWind from/ knotsBaromVisibWave heightAir tempDewpointWater temp
2014-Oct-31 20:23N 50°15' W 002°55'4 4.5
2014-Oct-31 19:33N 50°18' W 002°60'4 4.1
2014-Oct-31 18:33N 50°20' W 003°04'3 4.5
2014-Oct-31 18:00N 50°18' W 003°06'613.4 200 / 151013.2 1.017.215.316.3
2014-Oct-31 17:33N 50°23' W 003°10'4 3.9
2014-Oct-31 16:33N 50°25' W 003°16'2 2.0
2014-Oct-31 15:31N 50°25' W 003°19'1 1.3
2014-Oct-31 14:33N 50°25' W 003°21'3 2.4
2014-Oct-31 13:30N 50°25' W 003°25'2 2.5
2014-Oct-31 12:33N 50°25' W 003°29'2668413.4
2014-Oct-31 12:32N 50°24' E 003°29'268254.5
2014-Oct-31 11:28N 50°24' W 003°31'0 0.0
2014-Oct-31 10:28N 50°24' W 003°31'0 0.0
2014-Oct-31 09:31N 50°24' W 003°31'0 0.0
2014-Oct-31 08:31N 50°24' W 003°31'0 0.0
2014-Oct-31 07:31N 50°24' W 003°31'0 0.0
2014-Oct-31 06:32N 50°24' W 003°31'0 0.0
2014-Oct-31 05:31N 50°24' W 003°31'0 0.0
2014-Oct-31 04:31N 50°24' W 003°31'0 0.0
2014-Oct-31 03:32N 50°24' W 003°31'0 0.0
2014-Oct-31 02:32N 50°24' W 003°31'0 0.0
2014-Oct-31 01:32N 50°24' W 003°31'0 0.0
2014-Oct-31 00:26N 50°24' W 003°31'0 0.0
2014-Oct-30 23:32N 50°24' W 003°31'0 0.0
2014-Oct-30 22:32N 50°24' W 003°31'0 0.0
2014-Oct-30 21:32N 50°24' W 003°31'0 0.0
2014-Oct-30 20:29N 50°24' W 003°31'0 0.0
2014-Oct-30 19:32N 50°24' W 003°31'0 0.0
2014-Oct-30 18:14N 50°24' W 003°31'0 0.0
2014-Oct-30 17:17N 50°24' W 003°31'0 0.0
2014-Oct-30 16:32N 50°24' W 003°31'0 0.0
2014-Oct-30 15:32N 50°24' W 003°31'0 0.0
2014-Oct-30 14:23N 50°24' W 003°31'0 0.0
2014-Oct-30 13:26N 50°24' W 003°31'0 0.0
2014-Oct-30 12:33N 50°24' W 003°31'0 0.0
2014-Oct-30 11:33N 50°24' W 003°31'0 0.0
2014-Oct-30 10:27N 50°24' W 003°31'0 0.0
2014-Oct-30 09:30N 50°24' W 003°31'0 0.0
2014-Oct-30 08:33N 50°24' W 003°31'0 0.0
2014-Oct-30 07:30N 50°24' W 003°31'0 0.0
2014-Oct-30 06:30N 50°24' W 003°31'0 0.0
2014-Oct-30 05:33N 50°24' W 003°31'0 0.0
2014-Oct-30 04:33N 50°24' W 003°31'0 0.0
2014-Oct-30 03:33N 50°24' W 003°31'0 0.0
2014-Oct-30 02:27N 50°24' W 003°31'0 0.0
2014-Oct-30 01:30N 50°24' W 003°31'0 0.0
2014-Oct-30 00:33N 50°24' W 003°31'0 0.0
2014-Oct-29 23:33N 50°24' W 003°31'0 0.0
2014-Oct-29 22:30N 50°24' W 003°31'0 0.0
2014-Oct-29 21:33N 50°24' W 003°31'0 0.0
2014-Oct-29 20:33N 50°24' W 003°31'0 0.0
2014-Oct-29 19:33N 50°24' W 003°31'0 0.0
2014-Oct-29 18:30N 50°24' W 003°31'0 0.0
2014-Oct-29 17:27N 50°24' W 003°31'0 0.0
2014-Oct-29 16:33N 50°24' W 003°31'0 0.0
2014-Oct-29 15:33N 50°24' W 003°31'0 0.0
2014-Oct-29 14:33N 50°24' W 003°31'0 0.0
2014-Oct-29 13:33N 50°24' W 003°31'0 0.0
2014-Oct-29 12:33N 50°24' W 003°31'0 0.0
2014-Oct-29 11:27N 50°24' W 003°31'0 0.0
2014-Oct-29 10:33N 50°24' W 003°31'0 0.0
2014-Oct-29 09:33N 50°24' W 003°31'0 0.1
2014-Oct-29 08:30N 50°24' W 003°31'0 0.0
2014-Oct-29 07:33N 50°24' W 003°31'0 0.0
2014-Oct-29 06:33N 50°24' W 003°31'0 0.0
2014-Oct-29 05:34N 50°24' W 003°31'0 0.0
2014-Oct-29 04:33N 50°24' W 003°31'0 0.0
2014-Oct-29 03:33N 50°24' W 003°31'0 0.0
2014-Oct-29 02:34N 50°24' W 003°31'0 0.0
2014-Oct-29 01:34N 50°24' W 003°31'0 0.0
2014-Oct-29 00:31N 50°24' W 003°31'0 0.0
2014-Oct-28 23:34N 50°24' W 003°31'0 0.0
2014-Oct-28 22:31N 50°24' W 003°31'0 0.0
2014-Oct-28 21:31N 50°24' W 003°31'0 0.0
2014-Oct-28 20:31N 50°24' W 003°31'0 0.0
2014-Oct-28 19:31N 50°24' W 003°31'0 0.0
2014-Oct-28 18:31N 50°24' W 003°31'0 0.0
2014-Oct-28 17:31N 50°24' W 003°31'0 0.0
2014-Oct-28 16:31N 50°24' W 003°31'0 0.0
2014-Oct-28 15:31N 50°24' W 003°31'0 0.0
2014-Oct-28 14:31N 50°24' W 003°31'0 0.0
2014-Oct-28 13:31N 50°24' W 003°31'0 0.0
2014-Oct-28 12:31N 50°24' W 003°31'0 0.0
2014-Oct-28 11:31N 50°24' W 003°31'0 0.0
2014-Oct-28 10:31N 50°24' W 003°31'0 0.0
2014-Oct-28 09:31N 50°24' W 003°31'0 0.0
2014-Oct-28 08:31N 50°24' W 003°31'0 0.0
2014-Oct-28 07:31N 50°24' W 003°31'0 0.0
2014-Oct-28 06:31N 50°24' W 003°31'0 0.0
2014-Oct-28 05:31N 50°24' W 003°31'0 0.0
2014-Oct-28 04:31N 50°24' W 003°31'0 0.0
2014-Oct-28 03:31N 50°24' W 003°31'0 0.0
2014-Oct-28 02:31N 50°24' W 003°31'0 0.0
2014-Oct-28 01:31N 50°24' W 003°31'0 0.0
2014-Oct-28 00:31N 50°24' W 003°31'0 0.0
2014-Oct-27 23:31N 50°24' W 003°31'0 0.0
2014-Oct-27 22:31N 50°24' W 003°31'0 0.0
2014-Oct-27 21:31N 50°24' W 003°31'0 0.0
2014-Oct-27 20:31N 50°24' W 003°31'0 0.0
2014-Oct-27 19:31N 50°24' W 003°31'0 0.0
2014-Oct-27 18:31N 50°24' W 003°31'0 0.0
2014-Oct-27 17:31N 50°24' W 003°31'0 0.0
2014-Oct-27 16:31N 50°24' W 003°31'0 0.0
2014-Oct-27 15:31N 50°24' W 003°31'0 0.0
2014-Oct-27 14:31N 50°24' W 003°31'0 0.0
2014-Oct-27 13:31N 50°24' W 003°31'0 0.0
2014-Oct-27 12:31N 50°24' W 003°31'0 0.0
2014-Oct-27 11:31N 50°24' W 003°31'0 0.0
2014-Oct-27 10:31N 50°24' W 003°31'0 0.0
2014-Oct-27 09:28N 50°24' W 003°31'0 0.0
2014-Oct-27 08:31N 50°24' W 003°31'0 0.0
2014-Oct-27 07:28N 50°24' W 003°31'0 0.0
2014-Oct-27 06:31N 50°24' W 003°31'0 0.0
2014-Oct-27 05:31N 50°24' W 003°31'0 0.0
2014-Oct-27 04:31N 50°24' W 003°31'0 0.0
2014-Oct-27 03:31N 50°24' W 003°31'0 0.0
2014-Oct-27 02:31N 50°24' W 003°31'0 0.0
2014-Oct-27 01:31N 50°24' W 003°31'0 0.0
2014-Oct-27 00:31N 50°24' W 003°31'0 0.0
2014-Oct-26 23:31N 50°24' W 003°31'0 0.0
2014-Oct-26 22:31N 50°24' W 003°31'0 0.0
2014-Oct-26 21:31N 50°24' W 003°31'0 0.0
2014-Oct-26 20:31N 50°24' W 003°31'0 0.0
2014-Oct-26 19:31N 50°24' W 003°31'0 0.0
2014-Oct-26 18:31N 50°24' W 003°31'0 0.0
2014-Oct-26 17:31N 50°24' W 003°31'0 0.0
2014-Oct-26 16:31N 50°24' W 003°31'0 0.0
2014-Oct-26 15:31N 50°24' W 003°31'0 0.0
2014-Oct-26 14:31N 50°24' W 003°31'0 0.0
2014-Oct-26 13:31N 50°24' W 003°31'0 0.0
2014-Oct-26 12:28N 50°24' W 003°31'0 0.0
2014-Oct-26 11:31N 50°24' W 003°31'0 0.0
2014-Oct-26 10:28N 50°24' W 003°31'0 0.0
2014-Oct-26 09:31N 50°24' W 003°31'0 0.0
2014-Oct-26 08:31N 50°24' W 003°31'0 0.0
2014-Oct-26 07:31N 50°24' W 003°31'0 0.0
2014-Oct-26 06:31N 50°24' W 003°31'0 0.0
2014-Oct-26 05:31N 50°24' W 003°31'0 0.0
2014-Oct-26 04:31N 50°24' W 003°31'0 0.0
2014-Oct-26 03:31N 50°24' W 003°31'0 0.0
2014-Oct-26 02:31N 50°24' W 003°31'0 0.0
2014-Oct-26 01:28N 50°24' W 003°31'0 0.0
2014-Oct-26 00:31N 50°24' W 003°31'0 0.0
2014-Oct-25 23:31N 50°24' W 003°31'0 0.0
2014-Oct-25 22:31N 50°24' W 003°31'0 0.0
2014-Oct-25 21:31N 50°24' W 003°31'0 0.0
2014-Oct-25 20:28N 50°24' W 003°31'0 0.0
2014-Oct-25 19:31N 50°24' W 003°31'0 0.0
2014-Oct-25 18:31N 50°24' W 003°31'0 0.0
2014-Oct-25 17:31N 50°24' W 003°31'0 0.0
2014-Oct-25 16:31N 50°24' W 003°31'0 0.0
2014-Oct-25 15:31N 50°24' W 003°31'0 0.0
2014-Oct-25 14:28N 50°24' W 003°31'0 0.0
2014-Oct-25 13:31N 50°24' W 003°31'0 0.0
2014-Oct-25 12:31N 50°24' W 003°31'0 0.0
2014-Oct-25 11:31N 50°24' W 003°31'0 0.0
2014-Oct-25 10:31N 50°24' W 003°31'0 0.0
2014-Oct-25 09:28N 50°24' W 003°31'0 0.0
2014-Oct-25 08:31N 50°24' W 003°31'0 0.0
2014-Oct-25 07:31N 50°24' W 003°31'0 0.0
2014-Oct-25 06:31N 50°24' W 003°31'0 0.0
2014-Oct-25 05:31N 50°24' W 003°31'0 0.0
2014-Oct-25 04:31N 50°24' W 003°31'0 0.0
2014-Oct-25 03:33N 50°24' W 003°31'0 0.0
2014-Oct-25 02:33N 50°24' W 003°31'0 0.0
2014-Oct-25 01:33N 50°24' W 003°31'0 0.0
2014-Oct-25 00:33N 50°24' W 003°31'0 0.0
2014-Oct-24 23:33N 50°24' W 003°31'0 0.0
2014-Oct-24 22:33N 50°24' W 003°31'0 0.0
2014-Oct-24 21:33N 50°24' W 003°31'0 0.0
2014-Oct-24 20:33N 50°24' W 003°31'0 0.0
2014-Oct-24 19:33N 50°24' W 003°31'0 0.0
2014-Oct-24 18:33N 50°24' W 003°31'0 0.0
2014-Oct-24 17:33N 50°24' W 003°31'0 0.0
2014-Oct-24 16:33N 50°24' W 003°31'0 0.0
2014-Oct-24 15:33N 50°24' W 003°31'0 0.0
2014-Oct-24 14:33N 50°24' W 003°31'3 2.7
2014-Oct-24 13:33N 50°27' W 003°32'4 1.9
2014-Oct-24 11:16N 50°28' W 003°25'2 3.2
2014-Oct-24 10:33N 50°30' W 003°27'4 3.7
2014-Oct-24 09:33N 50°29' W 003°21'5 5.4
2014-Oct-24 08:33N 50°28' W 003°13'5 4.9
2014-Oct-24 07:31N 50°26' W 003°06'3 3.6
2014-Oct-24 06:33N 50°24' W 003°01'2 1.6
2014-Oct-24 05:32N 50°25' W 003°03'5 5.0
2014-Oct-24 04:33N 50°30' W 003°07'3 2.7
2014-Oct-24 03:33N 50°32' W 003°09'2 1.8
2014-Oct-24 02:32N 50°34' W 003°10'2 1.8
2014-Oct-24 01:33N 50°33' W 003°07'3 3.1
2014-Oct-24 00:31N 50°31' W 003°03'3 2.7
2014-Oct-23 23:33N 50°30' W 002°59'3 2.8
2014-Oct-23 22:30N 50°29' W 002°55'6 4.2
2014-Oct-23 20:58N 50°25' W 002°47'17 5.7
2014-Oct-23 18:00N 50°12' W 002°30'29 6.8 240 / 201019.1 16.912.916.7
2014-Oct-23 13:44N 49°56' W 001°52'2010.7
2014-Oct-23 11:50N 49°48' W 001°23'44 6.9
2014-Oct-23 05:25N 49°25' W 000°24'4 4.8
2014-Oct-23 04:33N 49°29' W 000°27'2 2.4
2014-Oct-23 03:33N 49°29' W 000°23'5 4.6
2014-Oct-23 02:32N 49°26' W 000°17'5 4.9
2014-Oct-23 01:33N 49°23' W 000°11'2 2.5
2014-Oct-23 00:33N 49°23' W 000°08'5 5.3
2014-Oct-22 23:33N 49°28' W 000°06'7 7.1
2014-Oct-22 22:33N 49°35' W 000°03'8 6.2
2014-Oct-22 21:20N 49°42' E 000°00'38 6.5
2014-Oct-22 15:25N 50°20' E 000°07'0 0.0
2014-Oct-22 15:23N 50°20' E 000°07'30601.1
2014-Oct-22 15:20N 50°22' W 000°40'5621.8
2014-Oct-22 12:46N 50°34' E 000°46'39 6.2
2014-Oct-22 06:32N 51°05' E 001°22'6 2.8
2014-Oct-22 04:22N 51°04' E 001°31'6 7.2
2014-Oct-22 03:33N 51°09' E 001°36'9 9.0
2014-Oct-22 02:33N 51°17' E 001°41'9 9.2
2014-Oct-22 01:33N 51°25' E 001°48'8 8.1
2014-Oct-22 00:33N 51°32' E 001°55'24 8.1
2014-Oct-21 21:33N 51°55' E 002°06'1110.6
2014-Oct-21 20:33N 52°06' E 002°09'  
Track history (hours):
 
Tides and Currents Weather Stations Pressure Air Temp Water Temp Dewpoint Dewpoint Depression Visibility Wind Speed Wind Dir Waves Ship Positions

Tres Hombres

Ship's website: http://www.zeilendehandelsvaart.nl/

Last reported at 2014-Oct-31 20:23 UTC. Time now 2014-Oct-31 22:21 UTC.
Position N 50°15' W 002°55'.

Length 32 m.

Type: Sailing vessel. MMSI: 667905000.

Date/timePositionNaut miles runAvg speedWind from/ knotsBaromVisibWave heightAir tempDewpointWater temp
2014-Oct-31 20:23N 50°15' W 002°55'4 4.5
2014-Oct-31 19:33N 50°18' W 002°60'4 4.1
2014-Oct-31 18:33N 50°20' W 003°04'3 4.5
2014-Oct-31 18:00N 50°18' W 003°06'613.4 200 / 151013.2 1.017.215.316.3
2014-Oct-31 17:33N 50°23' W 003°10'4 3.9
2014-Oct-31 16:33N 50°25' W 003°16'2 2.0
2014-Oct-31 15:31N 50°25' W 003°19'1 1.3
2014-Oct-31 14:33N 50°25' W 003°21'3 2.4
2014-Oct-31 13:30N 50°25' W 003°25'2 2.5
2014-Oct-31 12:33N 50°25' W 003°29'2668413.4
2014-Oct-31 12:32N 50°24' E 003°29'268254.5
2014-Oct-31 11:28N 50°24' W 003°31'0 0.0
2014-Oct-31 10:28N 50°24' W 003°31'0 0.0
2014-Oct-31 09:31N 50°24' W 003°31'0 0.0
2014-Oct-31 08:31N 50°24' W 003°31'0 0.0
2014-Oct-31 07:31N 50°24' W 003°31'0 0.0
2014-Oct-31 06:32N 50°24' W 003°31'0 0.0
2014-Oct-31 05:31N 50°24' W 003°31'0 0.0
2014-Oct-31 04:31N 50°24' W 003°31'0 0.0
2014-Oct-31 03:32N 50°24' W 003°31'0 0.0
2014-Oct-31 02:32N 50°24' W 003°31'0 0.0
2014-Oct-31 01:32N 50°24' W 003°31'0 0.0
2014-Oct-31 00:26N 50°24' W 003°31'0 0.0
2014-Oct-30 23:32N 50°24' W 003°31'0 0.0
2014-Oct-30 22:32N 50°24' W 003°31'0 0.0
2014-Oct-30 21:32N 50°24' W 003°31'0 0.0
2014-Oct-30 20:29N 50°24' W 003°31'0 0.0
2014-Oct-30 19:32N 50°24' W 003°31'0 0.0
2014-Oct-30 18:14N 50°24' W 003°31'0 0.0
2014-Oct-30 17:17N 50°24' W 003°31'0 0.0
2014-Oct-30 16:32N 50°24' W 003°31'0 0.0
2014-Oct-30 15:32N 50°24' W 003°31'0 0.0
2014-Oct-30 14:23N 50°24' W 003°31'0 0.0
2014-Oct-30 13:26N 50°24' W 003°31'0 0.0
2014-Oct-30 12:33N 50°24' W 003°31'0 0.0
2014-Oct-30 11:33N 50°24' W 003°31'0 0.0
2014-Oct-30 10:27N 50°24' W 003°31'0 0.0
2014-Oct-30 09:30N 50°24' W 003°31'0 0.0
2014-Oct-30 08:33N 50°24' W 003°31'0 0.0
2014-Oct-30 07:30N 50°24' W 003°31'0 0.0
2014-Oct-30 06:30N 50°24' W 003°31'0 0.0
2014-Oct-30 05:33N 50°24' W 003°31'0 0.0
2014-Oct-30 04:33N 50°24' W 003°31'0 0.0
2014-Oct-30 03:33N 50°24' W 003°31'0 0.0
2014-Oct-30 02:27N 50°24' W 003°31'0 0.0
2014-Oct-30 01:30N 50°24' W 003°31'0 0.0
2014-Oct-30 00:33N 50°24' W 003°31'0 0.0
2014-Oct-29 23:33N 50°24' W 003°31'0 0.0
2014-Oct-29 22:30N 50°24' W 003°31'0 0.0
2014-Oct-29 21:33N 50°24' W 003°31'0 0.0
2014-Oct-29 20:33N 50°24' W 003°31'0 0.0
2014-Oct-29 19:33N 50°24' W 003°31'0 0.0
2014-Oct-29 18:30N 50°24' W 003°31'0 0.0
2014-Oct-29 17:27N 50°24' W 003°31'0 0.0
2014-Oct-29 16:33N 50°24' W 003°31'0 0.0
2014-Oct-29 15:33N 50°24' W 003°31'0 0.0
2014-Oct-29 14:33N 50°24' W 003°31'0 0.0
2014-Oct-29 13:33N 50°24' W 003°31'0 0.0
2014-Oct-29 12:33N 50°24' W 003°31'0 0.0
2014-Oct-29 11:27N 50°24' W 003°31'0 0.0
2014-Oct-29 10:33N 50°24' W 003°31'0 0.0
2014-Oct-29 09:33N 50°24' W 003°31'0 0.1
2014-Oct-29 08:30N 50°24' W 003°31'0 0.0
2014-Oct-29 07:33N 50°24' W 003°31'0 0.0
2014-Oct-29 06:33N 50°24' W 003°31'0 0.0
2014-Oct-29 05:34N 50°24' W 003°31'0 0.0
2014-Oct-29 04:33N 50°24' W 003°31'0 0.0
2014-Oct-29 03:33N 50°24' W 003°31'0 0.0
2014-Oct-29 02:34N 50°24' W 003°31'0 0.0
2014-Oct-29 01:34N 50°24' W 003°31'0 0.0
2014-Oct-29 00:31N 50°24' W 003°31'0 0.0
2014-Oct-28 23:34N 50°24' W 003°31'0 0.0
2014-Oct-28 22:31N 50°24' W 003°31'0 0.0
2014-Oct-28 21:31N 50°24' W 003°31'0 0.0
2014-Oct-28 20:31N 50°24' W 003°31'0 0.0
2014-Oct-28 19:31N 50°24' W 003°31'0 0.0
2014-Oct-28 18:31N 50°24' W 003°31'0 0.0
2014-Oct-28 17:31N 50°24' W 003°31'0 0.0
2014-Oct-28 16:31N 50°24' W 003°31'0 0.0
2014-Oct-28 15:31N 50°24' W 003°31'0 0.0
2014-Oct-28 14:31N 50°24' W 003°31'0 0.0
2014-Oct-28 13:31N 50°24' W 003°31'0 0.0
2014-Oct-28 12:31N 50°24' W 003°31'0 0.0
2014-Oct-28 11:31N 50°24' W 003°31'0 0.0
2014-Oct-28 10:31N 50°24' W 003°31'0 0.0
2014-Oct-28 09:31N 50°24' W 003°31'0 0.0
2014-Oct-28 08:31N 50°24' W 003°31'0 0.0
2014-Oct-28 07:31N 50°24' W 003°31'0 0.0
2014-Oct-28 06:31N 50°24' W 003°31'0 0.0
2014-Oct-28 05:31N 50°24' W 003°31'0 0.0
2014-Oct-28 04:31N 50°24' W 003°31'0 0.0
2014-Oct-28 03:31N 50°24' W 003°31'0 0.0
2014-Oct-28 02:31N 50°24' W 003°31'0 0.0
2014-Oct-28 01:31N 50°24' W 003°31'0 0.0
2014-Oct-28 00:31N 50°24' W 003°31'0 0.0
2014-Oct-27 23:31N 50°24' W 003°31'0 0.0
2014-Oct-27 22:31N 50°24' W 003°31'0 0.0
2014-Oct-27 21:31N 50°24' W 003°31'0 0.0
2014-Oct-27 20:31N 50°24' W 003°31'0 0.0
2014-Oct-27 19:31N 50°24' W 003°31'0 0.0
2014-Oct-27 18:31N 50°24' W 003°31'0 0.0
2014-Oct-27 17:31N 50°24' W 003°31'0 0.0
2014-Oct-27 16:31N 50°24' W 003°31'0 0.0
2014-Oct-27 15:31N 50°24' W 003°31'0 0.0
2014-Oct-27 14:31N 50°24' W 003°31'0 0.0
2014-Oct-27 13:31N 50°24' W 003°31'0 0.0
2014-Oct-27 12:31N 50°24' W 003°31'0 0.0
2014-Oct-27 11:31N 50°24' W 003°31'0 0.0
2014-Oct-27 10:31N 50°24' W 003°31'0 0.0
2014-Oct-27 09:28N 50°24' W 003°31'0 0.0
2014-Oct-27 08:31N 50°24' W 003°31'0 0.0
2014-Oct-27 07:28N 50°24' W 003°31'0 0.0
2014-Oct-27 06:31N 50°24' W 003°31'0 0.0
2014-Oct-27 05:31N 50°24' W 003°31'0 0.0
2014-Oct-27 04:31N 50°24' W 003°31'0 0.0
2014-Oct-27 03:31N 50°24' W 003°31'0 0.0
2014-Oct-27 02:31N 50°24' W 003°31'0 0.0
2014-Oct-27 01:31N 50°24' W 003°31'0 0.0
2014-Oct-27 00:31N 50°24' W 003°31'0 0.0
2014-Oct-26 23:31N 50°24' W 003°31'0 0.0
2014-Oct-26 22:31N 50°24' W 003°31'0 0.0
2014-Oct-26 21:31N 50°24' W 003°31'0 0.0
2014-Oct-26 20:31N 50°24' W 003°31'0 0.0
2014-Oct-26 19:31N 50°24' W 003°31'0 0.0
2014-Oct-26 18:31N 50°24' W 003°31'0 0.0
2014-Oct-26 17:31N 50°24' W 003°31'0 0.0
2014-Oct-26 16:31N 50°24' W 003°31'0 0.0
2014-Oct-26 15:31N 50°24' W 003°31'0 0.0
2014-Oct-26 14:31N 50°24' W 003°31'0 0.0
2014-Oct-26 13:31N 50°24' W 003°31'0 0.0
2014-Oct-26 12:28N 50°24' W 003°31'0 0.0
2014-Oct-26 11:31N 50°24' W 003°31'0 0.0
2014-Oct-26 10:28N 50°24' W 003°31'0 0.0
2014-Oct-26 09:31N 50°24' W 003°31'0 0.0
2014-Oct-26 08:31N 50°24' W 003°31'0 0.0
2014-Oct-26 07:31N 50°24' W 003°31'0 0.0
2014-Oct-26 06:31N 50°24' W 003°31'0 0.0
2014-Oct-26 05:31N 50°24' W 003°31'0 0.0
2014-Oct-26 04:31N 50°24' W 003°31'0 0.0
2014-Oct-26 03:31N 50°24' W 003°31'0 0.0
2014-Oct-26 02:31N 50°24' W 003°31'0 0.0
2014-Oct-26 01:28N 50°24' W 003°31'0 0.0
2014-Oct-26 00:31N 50°24' W 003°31'0 0.0
2014-Oct-25 23:31N 50°24' W 003°31'0 0.0
2014-Oct-25 22:31N 50°24' W 003°31'0 0.0
2014-Oct-25 21:31N 50°24' W 003°31'0 0.0
2014-Oct-25 20:28N 50°24' W 003°31'0 0.0
2014-Oct-25 19:31N 50°24' W 003°31'0 0.0
2014-Oct-25 18:31N 50°24' W 003°31'0 0.0
2014-Oct-25 17:31N 50°24' W 003°31'0 0.0
2014-Oct-25 16:31N 50°24' W 003°31'0 0.0
2014-Oct-25 15:31N 50°24' W 003°31'0 0.0
2014-Oct-25 14:28N 50°24' W 003°31'0 0.0
2014-Oct-25 13:31N 50°24' W 003°31'0 0.0
2014-Oct-25 12:31N 50°24' W 003°31'0 0.0
2014-Oct-25 11:31N 50°24' W 003°31'0 0.0
2014-Oct-25 10:31N 50°24' W 003°31'0 0.0
2014-Oct-25 09:28N 50°24' W 003°31'0 0.0
2014-Oct-25 08:31N 50°24' W 003°31'0 0.0
2014-Oct-25 07:31N 50°24' W 003°31'0 0.0
2014-Oct-25 06:31N 50°24' W 003°31'0 0.0
2014-Oct-25 05:31N 50°24' W 003°31'0 0.0
2014-Oct-25 04:31N 50°24' W 003°31'0 0.0
2014-Oct-25 03:33N 50°24' W 003°31'0 0.0
2014-Oct-25 02:33N 50°24' W 003°31'0 0.0
2014-Oct-25 01:33N 50°24' W 003°31'0 0.0
2014-Oct-25 00:33N 50°24' W 003°31'0 0.0
2014-Oct-24 23:33N 50°24' W 003°31'0 0.0
2014-Oct-24 22:33N 50°24' W 003°31'0 0.0
2014-Oct-24 21:33N 50°24' W 003°31'0 0.0
2014-Oct-24 20:33N 50°24' W 003°31'0 0.0
2014-Oct-24 19:33N 50°24' W 003°31'0 0.0
2014-Oct-24 18:33N 50°24' W 003°31'0 0.0
2014-Oct-24 17:33N 50°24' W 003°31'0 0.0
2014-Oct-24 16:33N 50°24' W 003°31'0 0.0
2014-Oct-24 15:33N 50°24' W 003°31'0 0.0
2014-Oct-24 14:33N 50°24' W 003°31'3 2.7
2014-Oct-24 13:33N 50°27' W 003°32'4 1.9
2014-Oct-24 11:16N 50°28' W 003°25'2 3.2
2014-Oct-24 10:33N 50°30' W 003°27'4 3.7
2014-Oct-24 09:33N 50°29' W 003°21'5 5.4
2014-Oct-24 08:33N 50°28' W 003°13'5 4.9
2014-Oct-24 07:31N 50°26' W 003°06'3 3.6
2014-Oct-24 06:33N 50°24' W 003°01'2 1.6
2014-Oct-24 05:32N 50°25' W 003°03'5 5.0
2014-Oct-24 04:33N 50°30' W 003°07'3 2.7
2014-Oct-24 03:33N 50°32' W 003°09'2 1.8
2014-Oct-24 02:32N 50°34' W 003°10'2 1.8
2014-Oct-24 01:33N 50°33' W 003°07'3 3.1
2014-Oct-24 00:31N 50°31' W 003°03'3 2.7
2014-Oct-23 23:33N 50°30' W 002°59'3 2.8
2014-Oct-23 22:30N 50°29' W 002°55'6 4.2
2014-Oct-23 20:58N 50°25' W 002°47'17 5.7
2014-Oct-23 18:00N 50°12' W 002°30'29 6.8 240 / 201019.1 16.912.916.7
2014-Oct-23 13:44N 49°56' W 001°52'2010.7
2014-Oct-23 11:50N 49°48' W 001°23'44 6.9
2014-Oct-23 05:25N 49°25' W 000°24'4 4.8
2014-Oct-23 04:33N 49°29' W 000°27'2 2.4
2014-Oct-23 03:33N 49°29' W 000°23'5 4.6
2014-Oct-23 02:32N 49°26' W 000°17'5 4.9
2014-Oct-23 01:33N 49°23' W 000°11'2 2.5
2014-Oct-23 00:33N 49°23' W 000°08'5 5.3
2014-Oct-22 23:33N 49°28' W 000°06'7 7.1
2014-Oct-22 22:33N 49°35' W 000°03'8 6.2
2014-Oct-22 21:20N 49°42' E 000°00'38 6.5
2014-Oct-22 15:25N 50°20' E 000°07'0 0.0
2014-Oct-22 15:23N 50°20' E 000°07'30601.1
2014-Oct-22 15:20N 50°22' W 000°40'5621.8
2014-Oct-22 12:46N 50°34' E 000°46'39 6.2
2014-Oct-22 06:32N 51°05' E 001°22'6 2.8
2014-Oct-22 04:22N 51°04' E 001°31'6 7.2
2014-Oct-22 03:33N 51°09' E 001°36'9 9.0
2014-Oct-22 02:33N 51°17' E 001°41'9 9.2
2014-Oct-22 01:33N 51°25' E 001°48'8 8.1
2014-Oct-22 00:33N 51°32' E 001°55'24 8.1
2014-Oct-21 21:33N 51°55' E 002°06'1110.6
2014-Oct-21 20:33N 52°06' E 002°09'  

Dump ship's entire track history